Cumby, Texas
Current Conditions -  °F | °C
As of 7:55 AM on Saturday 22 Nov 2014 (Local Time) from KSLR Reporting Station
Overcast Overcast  
Wind Chill: 15°   Ceiling: 3500
Heat Index: 15°   Visibility: 10mi
Dew Point: 11°   Wind: 8mph
Humidity: 77%   Direction: 170°S
Pressure: 30.12"   Gusts: NA
Location:  33.14°N, 95.84°W
Report Text: KSLR 221355Z AUTO 17007KT 10SM BKN035 OVC050 15/11 A3012 RMK AO2 LTG DSNT W THRU E T01520111
Loading
Personal Weather Stations






























Interactive Weather Map New forecast layout! Learn more

10-Day Weather Forecast

Advertisements
Track Severe Weather on mobile